Time;durP1;ratioP1;P1;durP2;ratioP2;P2;SDS_P1;SDS_P2;PMS_P1;PMS_P2;Temp;Humidity;BMP_temperature;BMP_pressure;BME280_temperature;BME280_humidity;BME280_pressure;Samples;Min_cycle;Max_cycle;Signal;HPM_P1;HPM_P2
2022/01/14 05:00:36;;;;;;;13.23;6.68;;;6.90;99.90;;;;;;5881633;23;20251;-69
2022/01/14 05:03:02;;;;;;;10.02;6.10;;;6.80;99.90;;;;;;4941787;29;20616;-68
2022/01/14 05:05:33;;;;;;;13.80;6.65;;;6.80;99.90;;;;;;4939342;28;20213;-69
2022/01/14 05:08:00;;;;;;;15.05;5.60;;;6.90;99.90;;;;;;4935666;29;20695;-68
2022/01/14 05:10:36;;;;;;;10.73;6.93;;;6.90;99.90;;;;;;4952744;28;20677;-68
2022/01/14 05:13:03;;;;;;;10.38;6.40;;;6.90;99.90;;;;;;4937128;28;20296;-68
2022/01/14 05:15:31;;;;;;;11.77;6.20;;;6.90;99.90;;;;;;4930622;29;20206;-70
2022/01/14 05:17:59;;;;;;;9.80;6.13;;;6.90;99.90;;;;;;4932430;29;20261;-69
2022/01/14 05:20:25;;;;;;;10.23;6.07;;;6.90;99.90;;;;;;4933771;29;20202;-68
2022/01/14 05:22:52;;;;;;;10.30;5.20;;;6.90;99.90;;;;;;4934669;29;20210;-69
2022/01/14 05:25:19;;;;;;;7.40;5.40;;;6.90;99.90;;;;;;4933742;29;20262;-68
2022/01/14 05:27:45;;;;;;;13.40;6.82;;;6.90;99.90;;;;;;4914374;29;20214;-69
2022/01/14 05:30:14;;;;;;;13.88;6.55;;;6.90;99.90;;;;;;4933919;29;20548;-69
2022/01/14 05:32:46;;;;;;;6.85;6.25;;;6.90;99.90;;;;;;4940922;28;20632;-69
2022/01/14 05:35:15;;;;;;;8.80;5.70;;;6.90;99.90;;;;;;4934497;29;20208;-69
2022/01/14 05:37:42;;;;;;;7.60;5.80;;;6.90;99.90;;;;;;4934982;29;20273;-69
2022/01/14 05:40:10;;;;;;;15.10;6.57;;;6.90;99.90;;;;;;4947592;29;20573;-70
2022/01/14 05:42:36;;;;;;;11.20;5.97;;;6.90;99.90;;;;;;4941871;28;20675;-71
2022/01/14 05:45:04;;;;;;;12.35;5.60;;;6.90;99.90;;;;;;4933539;29;20600;-69
2022/01/14 05:47:31;;;;;;;8.10;6.13;;;6.90;99.90;;;;;;4942847;29;20240;-70
2022/01/14 05:49:58;;;;;;;10.50;6.00;;;6.90;99.90;;;;;;4934644;28;20222;-70
2022/01/14 05:52:26;;;;;;;13.70;6.45;;;6.90;99.90;;;;;;4941342;29;20241;-70
2022/01/14 05:54:53;;;;;;;10.77;6.32;;;6.90;99.90;;;;;;4935500;28;20206;-71
2022/01/14 05:57:20;;;;;;;15.70;6.50;;;6.90;99.90;;;;;;4927616;29;20216;-69
2022/01/14 05:59:47;;;;;;;11.00;6.82;;;6.90;99.90;;;;;;4975707;23;20648;-69
2022/01/14 06:02:14;;;;;;;8.02;6.13;;;6.90;99.90;;;;;;4960850;28;20672;-69
2022/01/14 06:04:42;;;;;;;10.23;6.72;;;6.90;99.90;;;;;;4972187;28;20208;-71
2022/01/14 06:07:09;;;;;;;8.52;6.45;;;6.90;99.90;;;;;;4964227;28;20213;-69
2022/01/14 06:09:38;;;;;;;7.55;5.68;;;6.90;99.90;;;;;;4955416;28;20233;-68
2022/01/14 06:12:05;;;;;;;5.50;4.95;;;6.90;99.90;;;;;;4952489;28;20205;-68
2022/01/14 06:14:32;;;;;;;7.50;5.93;;;6.90;99.90;;;;;;4951898;28;20206;-68
2022/01/14 06:16:59;;;;;;;8.02;6.35;;;6.90;99.90;;;;;;4952729;28;20209;-69
2022/01/14 06:19:27;;;;;;;7.28;4.70;;;6.90;99.90;;;;;;4952548;28;20229;-69
2022/01/14 06:21:54;;;;;;;11.15;6.10;;;6.90;99.90;;;;;;4952329;28;20213;-69
2022/01/14 06:24:20;;;;;;;7.53;5.43;;;6.90;99.90;;;;;;4952532;28;20212;-68
2022/01/14 06:26:48;;;;;;;10.38;5.93;;;6.90;99.90;;;;;;4952293;28;20205;-71
2022/01/14 06:29:15;;;;;;;10.15;5.95;;;6.90;99.90;;;;;;4951215;28;20235;-69
2022/01/14 06:31:42;;;;;;;11.40;6.22;;;6.90;99.90;;;;;;4952144;28;20201;-69
2022/01/14 06:34:08;;;;;;;13.65;6.13;;;6.90;99.90;;;;;;4952526;28;20201;-68
2022/01/14 06:36:35;;;;;;;10.57;5.75;;;6.90;99.90;;;;;;4952421;28;20213;-69
2022/01/14 06:39:02;;;;;;;12.25;6.05;;;6.90;99.90;;;;;;4955747;28;20238;-69
2022/01/14 06:41:29;;;;;;;10.57;6.60;;;6.90;99.90;;;;;;4951484;28;20197;-68
2022/01/14 06:43:58;;;;;;;10.15;6.60;;;6.90;99.90;;;;;;4951726;28;20217;-68
2022/01/14 06:46:24;;;;;;;14.85;6.28;;;6.90;99.90;;;;;;4952128;28;20217;-69
2022/01/14 06:48:51;;;;;;;10.32;6.07;;;6.90;99.90;;;;;;4951914;28;20236;-69
2022/01/14 06:51:18;;;;;;;10.35;6.68;;;6.90;99.90;;;;;;4951920;28;20209;-71
2022/01/14 06:53:44;;;;;;;14.25;6.50;;;6.90;99.90;;;;;;4952317;28;20682;-69
2022/01/14 06:56:13;;;;;;;18.95;6.60;;;6.90;99.90;;;;;;4951838;28;20236;-69
2022/01/14 06:58:40;;;;;;;13.95;7.25;;;6.90;99.90;;;;;;4951244;28;20316;-70
2022/01/14 07:01:08;;;;;;;12.25;7.05;;;6.90;99.90;;;;;;4951613;28;20677;-71
2022/01/14 07:03:35;;;;;;;10.13;5.88;;;6.90;99.90;;;;;;4940064;28;20211;-69
2022/01/14 07:06:01;;;;;;;13.52;5.97;;;6.90;99.90;;;;;;4963309;28;20296;-69
2022/01/14 07:08:28;;;;;;;10.25;6.45;;;6.90;99.90;;;;;;4971159;28;20208;-72
2022/01/14 07:10:55;;;;;;;5.65;5.05;;;6.90;99.90;;;;;;4954392;28;20635;-70
2022/01/14 07:13:22;;;;;;;10.00;6.53;;;6.90;99.90;;;;;;4952071;28;20311;-69
2022/01/14 07:15:48;;;;;;;8.65;5.50;;;6.90;99.90;;;;;;4951875;28;20201;-72
2022/01/14 07:18:16;;;;;;;11.10;5.80;;;6.90;99.90;;;;;;4951742;28;20224;-70
2022/01/14 07:20:43;;;;;;;8.77;5.47;;;6.90;99.90;;;;;;4955087;28;20224;-69
2022/01/14 07:23:10;;;;;;;10.45;5.10;;;6.90;99.90;;;;;;4955328;28;20209;-69
2022/01/14 07:25:38;;;;;;;13.00;5.70;;;6.90;99.90;;;;;;4956152;28;20370;-70
2022/01/14 07:28:05;;;;;;;8.05;5.32;;;6.90;99.90;;;;;;4966242;28;20201;-71
2022/01/14 07:30:33;;;;;;;12.40;6.22;;;6.90;99.90;;;;;;4959274;28;20677;-70
2022/01/14 07:32:59;;;;;;;8.35;5.13;;;6.90;99.90;;;;;;4956816;28;20213;-69
2022/01/14 07:35:29;;;;;;;8.90;6.25;;;7.00;99.90;;;;;;4956465;28;20208;-69
2022/01/14 07:37:55;;;;;;;9.25;5.65;;;7.00;99.90;;;;;;4957368;28;20216;-70
2022/01/14 07:40:22;;;;;;;10.85;6.13;;;7.00;99.90;;;;;;4956051;28;20233;-68
2022/01/14 07:42:49;;;;;;;12.27;7.28;;;7.00;99.90;;;;;;4955280;28;20255;-68
2022/01/14 07:45:15;;;;;;;12.50;7.00;;;7.00;99.90;;;;;;4955743;28;20233;-68
2022/01/14 07:47:42;;;;;;;14.38;6.32;;;7.00;99.90;;;;;;4961454;28;20223;-67
2022/01/14 07:50:09;;;;;;;10.52;5.93;;;7.00;99.90;;;;;;4974406;28;20239;-67
2022/01/14 07:52:37;;;;;;;8.25;5.53;;;7.00;99.90;;;;;;4967906;28;20209;-67
2022/01/14 07:55:04;;;;;;;10.25;5.95;;;7.00;99.90;;;;;;4954845;28;20209;-68
2022/01/14 07:57:31;;;;;;;6.72;6.00;;;7.00;99.90;;;;;;4958428;28;20204;-73
2022/01/14 07:59:58;;;;;;;6.65;4.65;;;7.00;99.90;;;;;;4973759;28;20233;-69
2022/01/14 08:02:25;;;;;;;11.73;4.97;;;7.00;99.90;;;;;;4966524;28;20248;-67
2022/01/14 08:04:52;;;;;;;12.25;5.38;;;7.00;99.90;;;;;;4967732;28;20262;-68
2022/01/14 08:07:22;;;;;;;10.60;5.47;;;7.00;99.90;;;;;;4959523;28;20578;-68
2022/01/14 08:09:50;;;;;;;16.50;6.18;;;7.00;99.90;;;;;;4959335;28;20319;-71
2022/01/14 08:12:17;;;;;;;9.90;5.03;;;7.00;99.90;;;;;;4958069;28;20275;-70
2022/01/14 08:14:44;;;;;;;5.45;4.88;;;7.00;99.90;;;;;;4952487;28;20249;-71
2022/01/14 08:17:12;;;;;;;10.57;4.85;;;7.00;99.90;;;;;;4954439;28;20252;-69
2022/01/14 08:19:39;;;;;;;11.35;5.00;;;7.10;99.90;;;;;;4971409;28;20224;-69
2022/01/14 08:22:07;;;;;;;8.35;4.75;;;7.10;99.90;;;;;;4972006;28;20294;-69
2022/01/14 08:24:35;;;;;;;7.72;4.07;;;7.10;99.90;;;;;;4958723;28;20201;-71
2022/01/14 08:27:05;;;;;;;6.18;4.68;;;7.10;99.90;;;;;;4953866;28;20364;-68
2022/01/14 08:29:33;;;;;;;4.97;4.00;;;7.10;99.90;;;;;;4952823;28;20291;-69
2022/01/14 08:32:00;;;;;;;8.65;4.88;;;7.10;99.90;;;;;;4954006;28;20344;-68
2022/01/14 08:34:28;;;;;;;8.18;5.70;;;7.10;99.90;;;;;;4966354;28;20740;-68
2022/01/14 08:36:55;;;;;;;12.25;5.45;;;7.20;99.90;;;;;;4965390;28;20205;-71
2022/01/14 08:39:22;;;;;;;8.55;5.80;;;7.20;99.90;;;;;;4953327;28;20460;-68
2022/01/14 08:41:49;;;;;;;9.05;5.75;;;7.20;99.90;;;;;;4953433;28;20205;-73
2022/01/14 08:44:17;;;;;;;14.13;6.70;;;7.20;99.90;;;;;;4960691;28;20748;-67
2022/01/14 08:46:44;;;;;;;4.90;4.50;;;7.20;99.90;;;;;;4953726;28;20201;-67
2022/01/14 08:49:11;;;;;;;7.38;5.28;;;7.20;99.90;;;;;;4954063;28;20233;-70
2022/01/14 08:51:38;;;;;;;13.23;6.03;;;7.20;99.90;;;;;;4953626;28;20232;-66
2022/01/14 08:54:07;;;;;;;11.55;6.20;;;7.20;99.90;;;;;;4953511;28;20209;-71
2022/01/14 08:56:34;;;;;;;10.68;5.00;;;7.20;99.90;;;;;;4953036;28;20736;-67
2022/01/14 08:59:01;;;;;;;6.78;5.25;;;7.20;99.90;;;;;;4959005;28;20245;-72
2022/01/14 09:01:29;;;;;;;9.43;5.30;;;7.20;99.90;;;;;;4956439;28;20757;-68
2022/01/14 09:03:56;;;;;;;11.20;5.63;;;7.20;99.90;;;;;;4953015;28;20276;-71
2022/01/14 09:06:23;;;;;;;10.27;5.80;;;7.30;99.90;;;;;;4953401;28;20214;-68
2022/01/14 09:08:50;;;;;;;13.15;5.22;;;7.30;99.90;;;;;;4953361;28;20217;-69
2022/01/14 09:11:17;;;;;;;12.93;5.20;;;7.30;99.90;;;;;;4950386;28;20206;-69
2022/01/14 09:13:43;;;;;;;9.40;5.85;;;7.30;99.90;;;;;;4959398;28;20264;-70
2022/01/14 09:16:10;;;;;;;9.98;5.55;;;7.30;99.90;;;;;;4958734;28;20209;-68
2022/01/14 09:18:38;;;;;;;8.95;6.53;;;7.30;99.90;;;;;;4953241;28;20629;-68
2022/01/14 09:21:05;;;;;;;10.73;5.43;;;7.20;99.90;;;;;;4952972;28;20197;-68
2022/01/14 09:23:34;;;;;;;6.72;5.60;;;7.30;99.90;;;;;;4952505;28;20205;-68
2022/01/14 09:26:01;;;;;;;11.30;6.05;;;7.30;99.90;;;;;;4952788;28;20213;-68
2022/01/14 09:28:28;;;;;;;9.48;6.00;;;7.30;99.90;;;;;;4946782;28;20209;-68
2022/01/14 09:30:55;;;;;;;10.68;6.72;;;7.30;99.90;;;;;;4952602;28;20248;-69
2022/01/14 09:33:22;;;;;;;15.50;5.60;;;7.30;99.90;;;;;;4952782;28;20205;-67
2022/01/14 09:35:50;;;;;;;8.15;5.75;;;7.30;99.90;;;;;;4952680;28;20210;-69
2022/01/14 09:38:17;;;;;;;7.90;5.45;;;7.30;99.90;;;;;;4952542;28;20566;-69
2022/01/14 09:40:45;;;;;;;12.98;6.97;;;7.30;99.90;;;;;;4952189;28;20201;-68
2022/01/14 09:43:13;;;;;;;8.10;5.57;;;7.30;99.90;;;;;;4951999;29;20256;-71
2022/01/14 09:45:41;;;;;;;14.80;7.55;;;7.30;99.90;;;;;;4952893;28;20216;-70
2022/01/14 09:48:08;;;;;;;14.60;7.07;;;7.30;99.90;;;;;;4949442;29;20216;-68
2022/01/14 09:50:35;;;;;;;13.52;7.28;;;7.30;99.90;;;;;;4952238;28;20297;-69
2022/01/14 09:53:03;;;;;;;11.48;7.00;;;7.30;99.90;;;;;;4952221;28;20216;-68
2022/01/14 09:55:29;;;;;;;9.07;7.22;;;7.40;99.90;;;;;;4953004;28;20729;-70
2022/01/14 09:57:57;;;;;;;10.77;9.25;;;7.30;99.90;;;;;;4952019;28;20201;-72
2022/01/14 10:00:24;;;;;;;15.02;8.43;;;7.30;99.90;;;;;;4952021;28;20229;-68
2022/01/14 10:02:51;;;;;;;12.45;7.38;;;7.30;99.90;;;;;;4952554;28;20216;-68
2022/01/14 10:05:36;;;;;;;13.07;7.45;;;7.30;99.90;;;;;;4954629;28;20670;-67
2022/01/14 10:08:16;;;;;;;10.20;6.50;;;7.40;99.90;;;;;;4952125;28;20618;-68
2022/01/14 10:10:46;;;;;;;14.98;6.22;;;7.30;99.90;;;;;;4947355;29;20221;-69
2022/01/14 10:13:16;;;;;;;11.15;7.88;;;7.30;99.90;;;;;;4952205;29;20656;-71
2022/01/14 10:15:47;;;;;;;12.00;7.18;;;7.30;99.90;;;;;;4949219;28;20220;-71
2022/01/14 10:18:17;;;;;;;9.23;7.57;;;7.30;99.90;;;;;;4956939;28;20697;-69
2022/01/14 10:20:44;;;;;;;15.15;8.05;;;7.30;99.90;;;;;;4951846;28;20205;-71
2022/01/14 10:23:13;;;;;;;14.20;8.40;;;7.40;99.90;;;;;;4952365;28;20292;-69
2022/01/14 10:25:41;;;;;;;8.60;6.68;;;7.40;99.90;;;;;;4960073;28;20204;-68
2022/01/14 10:28:18;;;;;;;10.85;7.80;;;7.40;99.90;;;;;;4961706;28;20301;-68
2022/01/14 10:30:46;;;;;;;10.02;7.57;;;7.40;99.90;;;;;;4951732;28;20320;-69
2022/01/14 10:33:14;;;;;;;13.48;8.00;;;7.40;99.90;;;;;;4952103;28;20641;-70
2022/01/14 10:35:42;;;;;;;14.90;9.15;;;7.40;99.90;;;;;;4960376;28;20212;-68
2022/01/14 10:38:12;;;;;;;9.50;7.93;;;7.40;99.90;;;;;;4954456;28;20296;-71
2022/01/14 10:40:44;;;;;;;9.30;7.80;;;7.40;99.90;;;;;;4951460;28;20681;-68
2022/01/14 10:43:13;;;;;;;10.48;7.85;;;7.40;99.90;;;;;;4951836;28;20257;-68
2022/01/14 10:45:42;;;;;;;8.98;8.00;;;7.40;99.90;;;;;;4959773;28;20204;-71
2022/01/14 10:48:11;;;;;;;12.93;7.90;;;7.40;99.90;;;;;;4959864;28;20220;-68
2022/01/14 10:50:41;;;;;;;20.45;8.60;;;7.40;99.90;;;;;;4950259;28;20248;-71
2022/01/14 10:53:10;;;;;;;16.08;8.15;;;7.40;99.90;;;;;;4966148;28;20288;-71
2022/01/14 10:55:40;;;;;;;10.93;7.70;;;7.40;99.90;;;;;;4971591;28;20197;-69
2022/01/14 10:58:13;;;;;;;34.22;21.80;;;7.40;99.90;;;;;;4951007;29;20217;-69
2022/01/14 11:00:42;;;;;;;15.48;11.07;;;7.50;99.90;;;;;;4953419;29;20236;-71
2022/01/14 11:03:08;;;;;;;18.63;10.40;;;7.50;99.90;;;;;;4955633;28;20622;-69
2022/01/14 11:05:35;;;;;;;17.00;11.18;;;7.50;99.90;;;;;;4957311;28;20205;-68
2022/01/14 11:08:04;;;;;;;9.85;8.85;;;7.50;99.90;;;;;;4955739;28;20303;-71
2022/01/14 11:10:33;;;;;;;15.32;10.38;;;7.50;99.90;;;;;;4954702;28;20329;-70
2022/01/14 11:13:04;;;;;;;14.18;8.70;;;7.50;99.90;;;;;;4955430;28;20225;-70
2022/01/14 11:15:33;;;;;;;10.32;7.00;;;7.60;99.90;;;;;;4955577;28;20212;-69
2022/01/14 11:18:02;;;;;;;10.70;7.30;;;7.60;99.90;;;;;;4955289;28;20218;-69
2022/01/14 11:20:34;;;;;;;7.32;6.15;;;7.60;99.90;;;;;;4954291;28;20236;-70
2022/01/14 11:23:16;;;;;;;11.75;6.68;;;7.60;99.90;;;;;;4950942;29;20205;-71
2022/01/14 11:25:49;;;;;;;11.43;7.22;;;7.70;99.90;;;;;;4955087;28;20209;-70
2022/01/14 11:28:26;;;;;;;7.22;6.53;;;7.80;99.90;;;;;;4949058;28;20678;-69
2022/01/14 11:30:52;;;;;;;10.25;6.50;;;7.80;99.90;;;;;;4954642;28;20264;-68
2022/01/14 11:33:19;;;;;;;8.90;5.80;;;7.80;99.90;;;;;;4954670;28;20624;-69
2022/01/14 11:35:55;;;;;;;11.40;6.07;;;7.80;99.90;;;;;;4954488;28;20657;-68
2022/01/14 11:38:42;;;;;;;11.15;5.53;;;7.90;99.90;;;;;;4954687;28;20288;-68
2022/01/14 11:41:10;;;;;;;13.05;5.55;;;7.90;99.90;;;;;;4954343;28;20201;-70
2022/01/14 11:43:48;;;;;;;10.20;6.25;;;7.90;99.90;;;;;;4943627;28;20218;-72
2022/01/14 11:46:36;;;;;;;10.65;7.03;;;7.90;99.90;;;;;;4954879;28;20678;-71
2022/01/14 11:49:31;;;;;;;12.07;5.22;;;7.90;99.90;;;;;;4951392;29;20233;-68
2022/01/14 11:52:00;;;;;;;7.20;5.32;;;7.90;99.90;;;;;;4951385;28;20276;-72
2022/01/14 11:54:41;;;;;;;7.93;6.32;;;7.90;99.90;;;;;;4935768;29;20213;-71
2022/01/14 11:57:09;;;;;;;5.57;5.10;;;7.90;99.90;;;;;;4956902;28;20734;-69
2022/01/14 11:59:45;;;;;;;10.10;5.40;;;7.90;99.90;;;;;;4958972;28;20344;-71
2022/01/14 12:02:29;;;;;;;5.70;5.20;;;7.90;99.90;;;;;;4945167;28;20670;-67
2022/01/14 12:05:22;;;;;;;7.93;5.43;;;8.00;99.90;;;;;;4952430;28;20212;-67
2022/01/14 12:08:15;;;;;;;8.95;5.20;;;8.10;99.90;;;;;;4953421;28;20268;-70
2022/01/14 12:10:44;;;;;;;8.70;5.82;;;8.00;99.90;;;;;;4947607;29;20276;-70
2022/01/14 12:13:23;;;;;;;10.88;4.82;;;8.10;99.90;;;;;;4956397;28;20562;-69
2022/01/14 12:15:57;;;;;;;5.97;4.38;;;8.10;99.90;;;;;;4950644;28;20213;-70
2022/01/14 12:19:14;;;;;;;5.38;4.80;;;8.10;99.90;;;;;;4951803;28;20259;-68
2022/01/14 12:22:11;;;;;;;6.15;4.07;;;8.00;99.90;;;;;;4914152;29;20262;-68
2022/01/14 12:24:51;;;;;;;4.55;4.20;;;8.10;99.90;;;;;;4934673;29;20206;-69
2022/01/14 12:27:28;;;;;;;4.40;4.07;;;8.20;99.90;;;;;;4944294;29;20307;-71
2022/01/14 12:30:05;;;;;;;4.35;3.70;;;8.10;99.90;;;;;;4950181;29;20229;-68
2022/01/14 12:32:34;;;;;;;4.40;4.10;;;8.20;99.90;;;;;;4951190;28;20268;-69
2022/01/14 12:35:08;;;;;;;5.78;3.60;;;8.20;99.90;;;;;;4958090;28;20233;-68
2022/01/14 12:37:39;;;;;;;4.95;3.83;;;8.20;99.90;;;;;;4950845;29;20216;-68
2022/01/14 12:40:12;;;;;;;4.90;3.50;;;8.20;99.90;;;;;;4948427;28;20233;-68
2022/01/14 12:42:40;;;;;;;8.07;3.70;;;8.20;99.90;;;;;;4954229;28;20681;-69
2022/01/14 12:45:11;;;;;;;3.13;2.80;;;8.20;99.90;;;;;;4948484;29;20315;-69
2022/01/14 12:47:41;;;;;;;2.55;2.45;;;8.30;99.90;;;;;;4950317;28;20213;-67
2022/01/14 12:50:11;;;;;;;2.75;2.65;;;8.20;99.90;;;;;;4949979;29;20260;-68
2022/01/14 12:52:50;;;;;;;4.45;3.25;;;8.20;99.90;;;;;;4953509;28;20582;-68
2022/01/14 12:55:18;;;;;;;4.18;2.78;;;8.20;99.90;;;;;;4953067;28;20244;-68
2022/01/14 12:57:45;;;;;;;5.55;2.33;;;8.20;99.90;;;;;;4945826;29;20202;-68
2022/01/14 13:00:14;;;;;;;4.10;3.70;;;8.20;99.90;;;;;;4952381;28;20376;-67
2022/01/14 13:02:41;;;;;;;2.78;2.63;;;8.20;99.90;;;;;;4952762;28;20228;-67
2022/01/14 13:05:12;;;;;;;2.63;2.53;;;8.20;99.90;;;;;;4953118;29;20228;-67
2022/01/14 13:07:39;;;;;;;3.65;3.35;;;8.20;99.90;;;;;;4952700;28;20268;-69
2022/01/14 13:10:10;;;;;;;3.58;3.40;;;8.20;99.90;;;;;;4937924;28;20229;-66
2022/01/14 13:12:40;;;;;;;4.28;3.90;;;8.20;99.90;;;;;;4937304;29;20212;-69
2022/01/14 13:15:09;;;;;;;4.28;3.13;;;8.10;99.90;;;;;;4952938;28;20272;-68
2022/01/14 13:17:39;;;;;;;3.35;3.17;;;8.10;99.90;;;;;;4952854;28;20213;-66
2022/01/14 13:20:08;;;;;;;4.05;2.90;;;8.10;99.90;;;;;;4952684;28;20236;-69
2022/01/14 13:22:36;;;;;;;5.10;3.10;;;8.10;99.90;;;;;;4953081;28;20213;-67
2022/01/14 13:25:06;;;;;;;3.28;3.00;;;8.20;99.90;;;;;;4953126;28;20224;-67
2022/01/14 13:27:38;;;;;;;6.13;3.10;;;8.20;99.90;;;;;;4944599;28;20261;-69
2022/01/14 13:30:07;;;;;;;3.17;2.58;;;8.20;99.90;;;;;;4944026;29;20225;-66
2022/01/14 13:32:36;;;;;;;2.70;2.60;;;8.30;99.90;;;;;;4952375;28;20233;-67
2022/01/14 13:35:09;;;;;;;4.25;4.03;;;8.30;99.90;;;;;;4952541;28;20217;-67
2022/01/14 13:37:37;;;;;;;5.72;5.32;;;8.30;99.90;;;;;;4952195;29;20689;-68
2022/01/14 13:40:10;;;;;;;2.85;2.65;;;8.30;99.90;;;;;;4952551;28;20217;-68
2022/01/14 13:42:41;;;;;;;1.90;1.90;;;8.30;99.90;;;;;;4952532;28;20212;-68
2022/01/14 13:45:15;;;;;;;4.70;2.00;;;8.30;99.90;;;;;;4951279;28;20279;-71
2022/01/14 13:47:42;;;;;;;2.20;2.10;;;8.30;99.90;;;;;;4944422;29;20213;-68
2022/01/14 13:50:15;;;;;;;1.85;1.77;;;8.30;99.90;;;;;;4960068;28;20232;-68
2022/01/14 13:52:45;;;;;;;2.97;1.55;;;8.30;99.90;;;;;;4937097;29;20232;-68
2022/01/14 13:55:13;;;;;;;2.65;2.55;;;8.30;99.90;;;;;;4952594;28;20217;-67
2022/01/14 13:57:42;;;;;;;2.53;2.42;;;8.30;99.90;;;;;;4952140;28;20646;-70
2022/01/14 14:00:11;;;;;;;2.10;2.00;;;8.30;99.90;;;;;;4951904;28;20299;-68
2022/01/14 14:02:51;;;;;;;2.95;2.80;;;8.30;99.90;;;;;;4952245;28;20201;-70
2022/01/14 14:05:38;;;;;;;4.65;2.60;;;8.30;99.90;;;;;;4952589;28;20197;-67
2022/01/14 14:08:12;;;;;;;3.00;2.80;;;8.30;99.90;;;;;;4952665;28;20338;-68
2022/01/14 14:16:33;;;;;;;2.75;2.55;;;8.30;99.90;;;;;;4951539;29;20219;-68
2022/01/14 14:19:00;;;;;;;1.50;1.50;;;8.30;99.90;;;;;;4952049;28;20221;-70
2022/01/14 14:21:33;;;;;;;3.33;1.58;;;8.20;99.90;;;;;;4951763;28;20580;-70
2022/01/14 14:24:02;;;;;;;1.55;1.48;;;8.20;99.90;;;;;;4952731;28;20276;-67
2022/01/14 14:26:32;;;;;;;1.40;1.30;;;8.20;99.90;;;;;;4951177;28;20213;-70
2022/01/14 14:29:19;;;;;;;2.17;2.03;;;8.20;99.90;;;;;;4946236;28;20221;-67
2022/01/14 14:31:46;;;;;;;2.60;2.40;;;8.20;99.90;;;;;;4951714;29;20231;-67
2022/01/14 14:34:13;;;;;;;2.17;2.17;;;8.20;99.90;;;;;;4952722;28;20224;-69
2022/01/14 14:36:41;;;;;;;1.63;1.63;;;8.20;99.90;;;;;;4952260;28;20216;-68
2022/01/14 14:39:10;;;;;;;2.17;2.17;;;8.10;99.90;;;;;;4951582;28;20233;-68
2022/01/14 14:41:36;;;;;;;2.38;2.13;;;8.10;99.90;;;;;;4951713;28;20209;-66
2022/01/14 14:44:05;;;;;;;1.92;1.92;;;8.10;99.90;;;;;;4951701;28;20209;-69
2022/01/14 14:46:32;;;;;;;3.15;2.95;;;8.10;99.90;;;;;;4951949;28;20209;-68
2022/01/14 14:48:59;;;;;;;2.03;2.03;;;8.10;99.90;;;;;;4951436;29;20840;-67
2022/01/14 14:51:26;;;;;;;3.10;2.10;;;8.00;99.90;;;;;;4950086;28;20221;-67
2022/01/14 14:53:53;;;;;;;1.65;1.65;;;8.10;99.90;;;;;;4959927;28;20200;-68
2022/01/14 14:56:19;;;;;;;1.83;1.77;;;8.00;99.90;;;;;;4970736;28;20208;-70
2022/01/14 14:58:46;;;;;;;1.50;1.50;;;8.00;99.90;;;;;;4968501;28;20739;-69
2022/01/14 15:01:14;;;;;;;1.50;1.50;;;8.00;99.90;;;;;;4951249;28;20209;-67
2022/01/14 15:03:41;;;;;;;2.00;2.00;;;8.00;99.90;;;;;;4951799;28;20205;-71
2022/01/14 15:06:11;;;;;;;8.85;2.90;;;8.00;99.90;;;;;;4951888;28;20213;-68
2022/01/14 15:08:38;;;;;;;2.20;2.13;;;8.00;99.90;;;;;;4951867;28;20233;-67
2022/01/14 15:11:05;;;;;;;2.17;2.10;;;8.00;99.90;;;;;;4950753;28;20803;-67
2022/01/14 15:13:32;;;;;;;3.17;2.60;;;8.00;99.90;;;;;;4952174;28;20301;-67
2022/01/14 15:16:24;;;;;;;2.80;2.40;;;8.00;99.90;;;;;;4951737;28;20206;-68
2022/01/14 15:18:53;;;;;;;2.65;2.42;;;8.00;99.90;;;;;;4944992;29;20232;-67
2022/01/14 15:21:20;;;;;;;1.90;1.90;;;8.00;99.90;;;;;;4951838;28;20236;-67
2022/01/14 15:23:50;;;;;;;2.78;2.58;;;8.00;99.90;;;;;;4951887;28;20220;-67
2022/01/14 15:26:18;;;;;;;2.40;2.30;;;8.00;99.90;;;;;;4951353;29;20772;-67
2022/01/14 15:28:44;;;;;;;3.92;3.28;;;8.00;99.90;;;;;;4950519;28;20713;-67
2022/01/14 15:31:11;;;;;;;4.97;4.50;;;8.00;99.90;;;;;;4950638;28;20315;-67
2022/01/14 15:33:38;;;;;;;6.88;4.97;;;8.00;99.90;;;;;;4951246;28;20702;-66
2022/01/14 15:36:06;;;;;;;3.63;3.33;;;8.00;99.90;;;;;;4951082;28;20213;-68
2022/01/14 15:38:33;;;;;;;2.53;2.42;;;7.90;99.90;;;;;;4952395;28;20685;-66
2022/01/14 15:41:00;;;;;;;3.42;3.17;;;7.90;99.90;;;;;;4953576;28;20197;-68
2022/01/14 15:43:28;;;;;;;2.35;2.10;;;7.90;99.90;;;;;;4954669;28;20216;-66
2022/01/14 15:45:56;;;;;;;1.83;1.73;;;7.90;99.90;;;;;;4954571;28;20213;-67
2022/01/14 15:48:22;;;;;;;3.05;2.85;;;7.90;99.90;;;;;;4954576;28;20201;-66
2022/01/14 15:50:49;;;;;;;2.42;2.00;;;7.90;99.90;;;;;;4954060;28;20224;-67
2022/01/14 15:53:17;;;;;;;2.10;2.00;;;7.90;99.90;;;;;;4954483;28;20624;-68
2022/01/14 15:55:44;;;;;;;2.20;1.98;;;7.90;99.90;;;;;;4951252;28;20216;-70
2022/01/14 15:58:12;;;;;;;2.20;2.10;;;7.90;99.90;;;;;;4954436;28;20220;-71
2022/01/14 16:00:39;;;;;;;2.90;1.67;;;7.90;99.90;;;;;;4961286;28;20241;-66
2022/01/14 16:03:06;;;;;;;7.28;2.80;;;7.80;99.90;;;;;;4954043;28;20214;-67
2022/01/14 16:05:33;;;;;;;6.10;3.00;;;7.80;99.90;;;;;;4954330;28;20737;-66
2022/01/14 16:08:00;;;;;;;5.60;3.00;;;7.70;99.90;;;;;;4954416;28;20651;-66
2022/01/14 16:10:28;;;;;;;5.55;2.47;;;7.70;99.90;;;;;;4953458;28;20604;-66
2022/01/14 16:12:57;;;;;;;5.90;3.38;;;7.70;99.90;;;;;;4954193;28;20232;-67
2022/01/14 16:15:24;;;;;;;6.28;3.63;;;7.60;99.90;;;;;;4953366;28;20654;-67
2022/01/14 16:17:51;;;;;;;8.48;5.00;;;7.60;99.90;;;;;;4953987;28;20666;-67
2022/01/14 16:20:19;;;;;;;6.55;3.85;;;7.50;99.90;;;;;;4953489;28;20726;-69
2022/01/14 16:22:47;;;;;;;11.73;4.53;;;7.50;99.90;;;;;;4954195;28;20205;-68
2022/01/14 16:25:15;;;;;;;11.65;4.32;;;7.40;99.90;;;;;;4953985;28;20213;-66
2022/01/14 16:27:44;;;;;;;7.18;4.40;;;7.40;99.90;;;;;;4953958;28;20303;-68
2022/01/14 16:30:12;;;;;;;13.52;4.90;;;7.30;99.90;;;;;;4953440;28;20311;-67
2022/01/14 16:32:40;;;;;;;7.60;4.47;;;7.30;99.90;;;;;;4954116;28;20253;-66
2022/01/14 16:35:09;;;;;;;5.60;3.15;;;7.30;99.90;;;;;;4953812;28;20209;-66
2022/01/14 16:37:37;;;;;;;10.80;4.82;;;7.20;99.90;;;;;;4957661;28;20643;-69
2022/01/14 16:40:05;;;;;;;13.93;5.35;;;7.20;99.90;;;;;;4953895;28;20232;-67
2022/01/14 16:42:33;;;;;;;13.05;5.95;;;7.20;99.90;;;;;;4954337;28;20205;-67
2022/01/14 16:45:03;;;;;;;16.17;5.13;;;7.10;99.90;;;;;;4950277;28;20268;-69
2022/01/14 16:47:30;;;;;;;11.88;4.40;;;7.10;99.90;;;;;;4959048;28;20689;-66
2022/01/14 16:49:57;;;;;;;11.18;5.30;;;7.00;99.90;;;;;;4952863;28;20687;-67
2022/01/14 16:52:24;;;;;;;8.52;6.05;;;7.00;99.90;;;;;;4956812;28;20232;-67
2022/01/14 16:54:52;;;;;;;11.65;5.70;;;7.00;99.90;;;;;;4974933;28;20303;-69
2022/01/14 16:57:20;;;;;;;8.13;4.68;;;7.00;99.90;;;;;;4954730;29;20205;-70
2022/01/14 16:59:49;;;;;;;11.98;4.95;;;6.90;99.90;;;;;;4943655;28;20244;-68
2022/01/14 17:02:18;;;;;;;8.52;4.72;;;6.90;99.90;;;;;;4952953;29;20726;-66
2022/01/14 17:04:45;;;;;;;7.53;4.00;;;6.80;99.90;;;;;;4953169;29;20703;-67
2022/01/14 17:07:12;;;;;;;8.40;4.68;;;6.80;99.90;;;;;;4953226;28;20209;-66
2022/01/14 17:09:39;;;;;;;13.60;4.65;;;6.80;99.90;;;;;;4946689;28;20615;-69
2022/01/14 17:12:09;;;;;;;11.02;4.13;;;6.70;99.90;;;;;;4955673;28;20248;-67
2022/01/14 17:14:36;;;;;;;19.00;4.05;;;6.70;99.90;;;;;;4953096;28;20674;-68
2022/01/14 17:17:03;;;;;;;10.63;4.30;;;6.70;99.90;;;;;;4951089;28;20224;-67
2022/01/14 17:19:31;;;;;;;5.38;3.50;;;6.70;99.90;;;;;;4952138;28;20229;-68
2022/01/14 17:21:58;;;;;;;11.63;4.88;;;6.60;99.90;;;;;;4951919;28;20212;-67
2022/01/14 17:24:25;;;;;;;14.85;4.40;;;6.60;99.90;;;;;;4969899;28;20205;-69
2022/01/14 17:26:52;;;;;;;7.40;3.95;;;6.60;99.90;;;;;;4953186;28;20209;-68
2022/01/14 17:29:18;;;;;;;8.98;4.07;;;6.50;99.90;;;;;;4952937;28;20241;-69
2022/01/14 17:31:45;;;;;;;15.63;3.38;;;6.50;99.90;;;;;;4961828;28;20264;-69
2022/01/14 17:34:13;;;;;;;12.50;4.35;;;6.40;99.90;;;;;;4954422;28;20737;-69
2022/01/14 17:36:42;;;;;;;11.73;3.97;;;6.40;99.90;;;;;;4957056;28;20200;-71
2022/01/14 17:39:08;;;;;;;7.18;4.30;;;6.40;99.90;;;;;;4961997;28;20237;-69
2022/01/14 17:41:35;;;;;;;14.00;5.00;;;6.40;99.90;;;;;;4952506;28;20209;-67
2022/01/14 17:44:02;;;;;;;8.55;3.85;;;6.40;99.90;;;;;;4952287;28;20206;-70
2022/01/14 17:46:29;;;;;;;18.58;5.57;;;6.30;99.90;;;;;;4952621;28;20209;-68
2022/01/14 17:48:56;;;;;;;14.68;5.78;;;6.30;99.90;;;;;;4952319;28;20729;-68
2022/01/14 17:51:24;;;;;;;11.93;4.95;;;6.30;99.90;;;;;;4950785;28;20209;-73
2022/01/14 17:53:52;;;;;;;14.05;4.20;;;6.20;99.90;;;;;;4932561;28;20233;-68
2022/01/14 17:56:19;;;;;;;8.95;4.53;;;6.20;99.90;;;;;;4963982;28;20640;-70
2022/01/14 17:58:46;;;;;;;9.27;4.20;;;6.20;99.90;;;;;;4947662;28;20244;-67
2022/01/14 18:01:13;;;;;;;7.90;3.90;;;6.10;99.90;;;;;;4949347;28;20269;-67
2022/01/14 18:03:40;;;;;;;21.40;5.55;;;6.10;99.90;;;;;;4949348;28;20212;-67
2022/01/14 18:06:07;;;;;;;15.05;5.13;;;6.10;99.90;;;;;;4949966;28;20295;-68
2022/01/14 18:08:34;;;;;;;12.98;4.72;;;6.00;99.90;;;;;;4948863;28;20205;-71